createdAt,value
2023-02-20T00:01:35.389Z,1.50
2023-02-20T00:04:02.466Z,1.50
2023-02-20T00:06:29.527Z,1.60
2023-02-20T00:08:56.650Z,1.40
2023-02-20T00:11:23.804Z,1.50
2023-02-20T00:13:51.067Z,1.50
2023-02-20T00:16:18.119Z,1.50
2023-02-20T00:18:45.952Z,1.50
2023-02-20T00:21:13.114Z,1.30
2023-02-20T00:23:40.238Z,1.30
2023-02-20T00:26:11.881Z,1.20
2023-02-20T00:28:40.440Z,1.20
2023-02-20T00:31:08.961Z,1.10
2023-02-20T00:33:36.888Z,1.40
2023-02-20T00:36:04.840Z,1.30
2023-02-20T00:38:32.242Z,1.30
2023-02-20T00:40:59.158Z,1.20
2023-02-20T00:43:26.181Z,1.30
2023-02-20T00:45:57.067Z,1.30
2023-02-20T00:48:24.044Z,1.30
2023-02-20T00:50:50.961Z,1.30
2023-02-20T00:53:17.877Z,1.10
2023-02-20T00:55:44.997Z,1.30
2023-02-20T00:58:11.919Z,1.20
2023-02-20T01:00:41.834Z,1.00
2023-02-20T01:03:08.776Z,1.10
2023-02-20T01:05:35.675Z,1.10
2023-02-20T01:08:02.603Z,1.00
2023-02-20T01:10:29.985Z,1.20
2023-02-20T01:12:56.906Z,1.10
2023-02-20T01:15:23.925Z,1.00
2023-02-20T01:17:50.908Z,0.90
2023-02-20T01:20:17.862Z,1.10
2023-02-20T01:22:44.855Z,1.20
2023-02-20T01:25:11.832Z,1.10
2023-02-20T01:27:38.766Z,0.90
2023-02-20T01:30:06.591Z,0.90
2023-02-20T01:32:33.693Z,1.10
2023-02-20T01:35:00.924Z,1.00
2023-02-20T01:37:27.862Z,0.90
2023-02-20T01:39:54.789Z,1.00
2023-02-20T01:42:25.125Z,0.80
2023-02-20T01:44:52.092Z,1.10
2023-02-20T01:47:21.621Z,0.80
2023-02-20T01:49:58.142Z,0.90
2023-02-20T01:52:31.894Z,0.90
2023-02-20T01:55:22.663Z,0.90
2023-02-20T01:57:58.817Z,0.80
2023-02-20T02:00:26.990Z,1.00
2023-02-20T02:03:02.465Z,0.90
2023-02-20T02:05:31.938Z,0.90
2023-02-20T02:08:01.514Z,0.80
2023-02-20T02:10:37.991Z,0.80
2023-02-20T02:13:06.515Z,0.90
2023-02-20T02:15:33.453Z,0.90
2023-02-20T02:18:20.469Z,1.00
2023-02-20T02:21:25.030Z,1.00
2023-02-20T02:23:54.740Z,0.80
2023-02-20T02:26:44.878Z,1.00
2023-02-20T02:29:27.095Z,0.80
2023-02-20T02:32:17.355Z,1.00
2023-02-20T02:34:59.575Z,1.00
2023-02-20T02:38:03.443Z,0.90
2023-02-20T02:40:44.000Z,0.80
2023-02-20T02:43:20.401Z,0.90
2023-02-20T02:46:01.673Z,0.90
2023-02-20T02:48:41.997Z,0.90
2023-02-20T02:51:23.729Z,1.10
2023-02-20T02:54:13.880Z,1.00
2023-02-20T02:56:46.852Z,1.00
2023-02-20T02:59:24.015Z,0.80
2023-02-20T03:01:56.913Z,0.70
2023-02-20T03:04:26.137Z,1.00
2023-02-20T03:06:59.396Z,0.90
2023-02-20T03:09:32.868Z,1.00
2023-02-20T03:12:01.707Z,1.00
2023-02-20T03:14:54.764Z,1.00
2023-02-20T03:17:32.361Z,1.10
2023-02-20T03:20:04.010Z,1.10
2023-02-20T03:22:44.129Z,1.00
2023-02-20T03:25:11.016Z,1.00
2023-02-20T03:27:48.952Z,1.10
2023-02-20T03:30:28.648Z,1.20
2023-02-20T03:33:21.138Z,1.10
2023-02-20T03:36:08.198Z,1.10
2023-02-20T03:38:57.149Z,1.10
2023-02-20T03:41:45.978Z,1.20
2023-02-20T03:44:16.421Z,1.10
2023-02-20T03:46:44.937Z,1.10
2023-02-20T03:49:15.694Z,1.20
2023-02-20T03:51:43.663Z,0.90
2023-02-20T03:54:11.388Z,1.00
2023-02-20T03:56:43.194Z,0.90
2023-02-20T03:59:17.550Z,0.90
2023-02-20T04:01:49.043Z,1.20
2023-02-20T04:04:23.577Z,0.90
2023-02-20T04:06:52.401Z,1.00
2023-02-20T04:09:28.906Z,1.10
2023-02-20T04:12:04.736Z,1.00
2023-02-20T04:14:32.348Z,1.00
2023-02-20T04:17:04.187Z,1.20
2023-02-20T04:19:31.419Z,1.10
2023-02-20T04:22:04.740Z,1.20
2023-02-20T04:24:35.438Z,1.30
2023-02-20T04:27:03.173Z,1.20
2023-02-20T04:29:30.232Z,1.00
2023-02-20T04:31:57.220Z,1.20
2023-02-20T04:34:24.138Z,1.40
2023-02-20T04:37:09.712Z,1.20
2023-02-20T04:39:37.048Z,1.30
2023-02-20T04:42:04.102Z,1.10
2023-02-20T04:44:31.348Z,1.40
2023-02-20T04:46:58.831Z,1.20
2023-02-20T04:49:25.759Z,1.60
2023-02-20T04:51:52.766Z,1.50
2023-02-20T04:54:19.772Z,1.50
2023-02-20T04:56:47.063Z,1.30
2023-02-20T04:59:14.196Z,1.60
2023-02-20T05:01:42.026Z,1.50
2023-02-20T05:04:09.230Z,1.40
2023-02-20T05:06:44.246Z,1.50
2023-02-20T05:09:11.328Z,1.50
2023-02-20T05:11:39.105Z,1.50
2023-02-20T05:14:06.379Z,1.60
2023-02-20T05:16:33.451Z,1.60
2023-02-20T05:19:01.912Z,1.70
2023-02-20T05:21:47.452Z,1.70
2023-02-20T05:24:14.567Z,1.50
2023-02-20T05:26:41.502Z,1.70
2023-02-20T05:29:10.114Z,1.80
2023-02-20T05:31:37.079Z,1.60
2023-02-20T05:34:04.088Z,1.70
2023-02-20T05:36:31.141Z,1.80
2023-02-20T05:38:58.105Z,1.70
2023-02-20T05:41:25.192Z,1.60
2023-02-20T05:43:54.719Z,1.90
2023-02-20T05:46:21.659Z,1.80
2023-02-20T05:48:56.014Z,1.80
2023-02-20T05:51:34.170Z,2.00
2023-02-20T05:54:01.688Z,2.00
2023-02-20T05:56:30.200Z,2.00
2023-02-20T05:58:57.770Z,1.90
2023-02-20T06:01:27.111Z,2.00
2023-02-20T06:03:54.323Z,2.00
2023-02-20T06:06:21.634Z,2.20
2023-02-20T06:08:49.160Z,2.00
2023-02-20T06:11:18.315Z,2.20
2023-02-20T06:13:46.443Z,2.20
2023-02-20T06:16:26.135Z,2.20
2023-02-20T06:18:53.590Z,2.40
2023-02-20T06:21:23.232Z,2.50
2023-02-20T06:23:51.939Z,2.30
2023-02-20T06:26:19.855Z,2.20
2023-02-20T06:28:50.231Z,2.40
2023-02-20T06:31:28.558Z,2.40
2023-02-20T06:33:55.649Z,2.40
2023-02-20T06:36:25.676Z,2.40
2023-02-20T06:38:52.881Z,2.80
2023-02-20T06:41:19.837Z,2.50
2023-02-20T06:43:46.870Z,2.30
2023-02-20T06:46:14.197Z,2.30
2023-02-20T06:48:50.182Z,2.40
2023-02-20T06:51:18.599Z,2.30
2023-02-20T06:53:45.597Z,2.40
2023-02-20T06:56:18.699Z,2.50
2023-02-20T06:58:50.453Z,2.40
2023-02-20T07:01:18.874Z,2.50
2023-02-20T07:03:49.066Z,2.20
2023-02-20T07:06:16.670Z,2.20
2023-02-20T07:08:43.928Z,2.10
2023-02-20T07:11:11.821Z,2.10
2023-02-20T07:13:38.897Z,2.00
2023-02-20T07:16:06.457Z,2.20
2023-02-20T07:18:33.515Z,2.00
2023-02-20T07:21:00.549Z,2.30
2023-02-20T07:23:27.471Z,2.30
2023-02-20T07:25:54.429Z,2.10
2023-02-20T07:28:21.600Z,2.30
2023-02-20T07:30:51.651Z,2.10
2023-02-20T07:33:20.620Z,2.00
2023-02-20T07:35:49.061Z,2.00
2023-02-20T07:38:16.080Z,2.10
2023-02-20T07:40:43.025Z,2.10
2023-02-20T07:43:10.328Z,2.30
2023-02-20T07:45:39.350Z,2.30
2023-02-20T07:48:06.653Z,2.30
2023-02-20T07:50:34.341Z,2.40
2023-02-20T07:53:01.357Z,2.30
2023-02-20T07:55:28.443Z,2.40
2023-02-20T07:57:58.533Z,2.70
2023-02-20T08:00:27.276Z,2.40
2023-02-20T08:02:54.723Z,2.60
2023-02-20T08:05:22.254Z,2.60
2023-02-20T08:07:50.642Z,2.70
2023-02-20T08:10:19.896Z,2.70
2023-02-20T08:12:48.445Z,2.60
2023-02-20T08:15:15.709Z,2.40
2023-02-20T08:17:47.436Z,2.60
2023-02-20T08:20:19.906Z,2.60
2023-02-20T08:22:48.286Z,2.40
2023-02-20T08:25:16.414Z,2.70
2023-02-20T08:27:49.131Z,2.50
2023-02-20T08:30:23.951Z,2.40
2023-02-20T08:32:55.631Z,2.50
2023-02-20T08:35:25.185Z,2.30
2023-02-20T08:37:52.260Z,2.40
2023-02-20T08:40:19.571Z,2.60
2023-02-20T08:42:50.467Z,2.50
2023-02-20T08:45:17.408Z,2.60
2023-02-20T08:47:44.400Z,2.60
2023-02-20T08:50:11.468Z,2.40
2023-02-20T08:52:38.425Z,2.10
2023-02-20T08:55:06.412Z,2.30
2023-02-20T08:57:33.759Z,1.90
2023-02-20T09:00:00.724Z,1.90
2023-02-20T09:02:29.682Z,1.70
2023-02-20T09:04:57.766Z,1.70
2023-02-20T09:07:25.411Z,1.30
2023-02-20T09:09:55.882Z,1.40
2023-02-20T09:12:22.947Z,1.40
2023-02-20T09:14:49.865Z,1.40
2023-02-20T09:17:17.608Z,1.40
2023-02-20T09:19:44.510Z,1.20
2023-02-20T09:22:11.685Z,1.20
2023-02-20T09:24:39.188Z,1.20
2023-02-20T09:27:06.887Z,1.20
2023-02-20T09:29:33.862Z,1.10
2023-02-20T09:32:01.159Z,1.20
2023-02-20T09:34:28.339Z,0.90
2023-02-20T09:36:55.666Z,0.90
2023-02-20T09:39:22.808Z,1.10
2023-02-20T09:42:05.103Z,0.90
2023-02-20T09:45:12.965Z,0.90
2023-02-20T09:47:42.709Z,0.80
2023-02-20T09:50:28.547Z,0.90
2023-02-20T09:53:17.994Z,0.80
2023-02-20T09:55:46.248Z,0.80
2023-02-20T09:58:26.081Z,0.60
2023-02-20T10:00:53.583Z,0.80
2023-02-20T10:03:43.429Z,0.80
2023-02-20T10:06:23.678Z,0.60
2023-02-20T10:08:52.252Z,0.90
2023-02-20T10:11:54.721Z,0.70
2023-02-20T10:14:58.387Z,0.70
2023-02-20T10:17:40.455Z,0.70
2023-02-20T10:20:16.592Z,0.70
2023-02-20T10:23:07.706Z,0.70
2023-02-20T10:25:42.102Z,0.70
2023-02-20T10:28:16.609Z,0.70
2023-02-20T10:30:49.759Z,0.80
2023-02-20T10:33:22.546Z,0.60
2023-02-20T10:36:02.453Z,0.90
2023-02-20T10:38:39.153Z,0.90
2023-02-20T10:41:11.766Z,0.90
2023-02-20T10:43:53.078Z,0.90
2023-02-20T10:46:49.004Z,0.90
2023-02-20T10:49:24.820Z,1.10
2023-02-20T10:51:56.612Z,1.20
2023-02-20T10:54:31.272Z,1.00
2023-02-20T10:57:08.415Z,0.90
2023-02-20T10:59:47.453Z,0.80
2023-02-20T11:02:21.431Z,1.00
2023-02-20T11:05:22.670Z,1.00
2023-02-20T11:07:49.928Z,1.00
2023-02-20T11:10:17.173Z,1.00
2023-02-20T11:12:51.497Z,0.80
2023-02-20T11:15:24.924Z,0.80
2023-02-20T11:17:58.304Z,1.00
2023-02-20T11:20:38.828Z,0.90
2023-02-20T11:23:05.870Z,0.70
2023-02-20T11:25:35.129Z,0.80
2023-02-20T11:28:19.141Z,0.90
2023-02-20T11:30:50.224Z,1.00
2023-02-20T11:33:23.820Z,0.90
2023-02-20T11:35:58.252Z,1.00
2023-02-20T11:38:30.345Z,0.90
2023-02-20T11:41:00.834Z,1.00
2023-02-20T11:43:37.372Z,1.00
2023-02-20T11:46:18.826Z,1.10
2023-02-20T11:48:54.845Z,1.30
2023-02-20T11:51:47.201Z,1.20
2023-02-20T11:54:18.475Z,1.20
2023-02-20T11:56:57.244Z,1.10
2023-02-20T11:59:40.380Z,1.40
2023-02-20T12:02:16.368Z,1.50
2023-02-20T12:05:08.868Z,1.50
2023-02-20T12:07:44.379Z,1.70
2023-02-20T12:10:20.019Z,1.80
2023-02-20T12:12:47.041Z,2.00
2023-02-20T12:15:17.563Z,1.70
2023-02-20T12:17:59.158Z,1.90
2023-02-20T12:20:29.578Z,2.10
2023-02-20T12:23:36.102Z,2.00
2023-02-20T12:26:11.222Z,2.20
2023-02-20T12:28:50.242Z,2.20
2023-02-20T12:31:51.449Z,2.30
2023-02-20T12:34:18.355Z,2.70
2023-02-20T12:37:11.113Z,2.50
2023-02-20T12:40:02.295Z,2.80
2023-02-20T12:42:38.170Z,2.70
2023-02-20T12:45:20.873Z,3.00
2023-02-20T12:48:02.571Z,3.10
2023-02-20T12:50:42.086Z,3.00
2023-02-20T12:53:39.910Z,3.40
2023-02-20T12:56:27.893Z,3.30
2023-02-20T12:59:09.089Z,3.70
2023-02-20T13:01:40.236Z,3.60
2023-02-20T13:04:26.004Z,3.80
2023-02-20T13:07:04.500Z,4.00
2023-02-20T13:09:40.568Z,4.00
2023-02-20T13:12:13.870Z,4.40
2023-02-20T13:14:55.983Z,4.40
2023-02-20T13:17:41.171Z,4.60
2023-02-20T13:20:17.942Z,4.50
2023-02-20T13:23:05.650Z,4.40
2023-02-20T13:25:42.761Z,4.60
2023-02-20T13:28:12.867Z,4.70
2023-02-20T13:30:41.062Z,4.60
2023-02-20T13:33:28.987Z,4.70
2023-02-20T13:35:57.945Z,4.80
2023-02-20T13:38:27.183Z,4.80
2023-02-20T13:40:57.043Z,4.90
2023-02-20T13:43:25.884Z,4.80
2023-02-20T13:46:06.619Z,4.90
2023-02-20T13:48:34.234Z,4.90
2023-02-20T13:51:16.714Z,4.90
2023-02-20T13:54:13.624Z,4.80
2023-02-20T13:57:14.370Z,4.90
2023-02-20T13:59:41.464Z,4.80
2023-02-20T14:02:24.166Z,4.70
2023-02-20T14:04:57.125Z,5.00
2023-02-20T14:07:29.569Z,5.00
2023-02-20T14:10:14.783Z,5.20
2023-02-20T14:12:41.721Z,5.10
2023-02-20T14:15:09.522Z,5.20
2023-02-20T14:17:39.769Z,5.10
2023-02-20T14:20:15.964Z,5.00
2023-02-20T14:22:42.989Z,4.90
2023-02-20T14:25:12.755Z,5.00
2023-02-20T14:27:41.200Z,5.00
2023-02-20T14:30:12.812Z,5.20
2023-02-20T14:32:46.787Z,5.10
2023-02-20T14:35:34.750Z,5.30
2023-02-20T14:38:10.817Z,5.10
2023-02-20T14:40:41.773Z,5.10
2023-02-20T14:43:25.884Z,5.20
2023-02-20T14:46:23.868Z,5.20
2023-02-20T14:49:02.955Z,5.20
2023-02-20T14:51:29.925Z,5.20
2023-02-20T14:54:08.947Z,5.20
2023-02-20T14:56:36.099Z,5.30
2023-02-20T14:59:34.075Z,5.20
2023-02-20T15:02:24.171Z,5.00
2023-02-20T15:05:10.378Z,5.20
2023-02-20T15:07:40.149Z,5.20
2023-02-20T15:10:36.193Z,5.20
2023-02-20T15:13:18.372Z,5.10
2023-02-20T15:15:52.095Z,5.30
2023-02-20T15:18:40.874Z,5.30
2023-02-20T15:21:08.268Z,5.20
2023-02-20T15:23:41.106Z,5.30
2023-02-20T15:26:26.805Z,5.30
2023-02-20T15:29:11.854Z,5.30
2023-02-20T15:31:39.085Z,5.30
2023-02-20T15:34:24.006Z,5.20
2023-02-20T15:36:51.069Z,5.30
2023-02-20T15:39:18.960Z,5.30
2023-02-20T15:41:47.610Z,5.40
2023-02-20T15:44:15.360Z,5.50
2023-02-20T15:46:42.359Z,5.40
2023-02-20T15:49:19.316Z,5.50
2023-02-20T15:51:47.478Z,5.30
2023-02-20T15:54:17.726Z,5.40
2023-02-20T15:56:45.320Z,5.20
2023-02-20T15:59:12.806Z,5.40
2023-02-20T16:01:40.803Z,5.30
2023-02-20T16:04:08.766Z,5.30
2023-02-20T16:06:42.933Z,5.30
2023-02-20T16:09:10.230Z,5.40
2023-02-20T16:11:47.997Z,5.40
2023-02-20T16:14:19.666Z,5.60
2023-02-20T16:16:51.223Z,5.80
2023-02-20T16:19:33.385Z,5.80
2023-02-20T16:22:03.931Z,5.70
2023-02-20T16:24:32.765Z,5.70
2023-02-20T16:26:59.854Z,5.80
2023-02-20T16:29:33.047Z,5.90
2023-02-20T16:32:00.080Z,5.90
2023-02-20T16:34:31.603Z,5.80
2023-02-20T16:36:59.346Z,5.70
2023-02-20T16:39:27.493Z,5.80
2023-02-20T16:41:58.259Z,5.50
2023-02-20T16:44:42.310Z,5.30
2023-02-20T16:47:35.405Z,5.50
2023-02-20T16:50:07.108Z,5.40
2023-02-20T16:52:39.503Z,5.30
2023-02-20T16:55:27.596Z,5.30
2023-02-20T16:57:55.557Z,5.10
2023-02-20T17:00:38.492Z,5.30
2023-02-20T17:03:12.512Z,5.20
2023-02-20T17:05:40.492Z,5.30
2023-02-20T17:08:07.868Z,5.20
2023-02-20T17:10:35.301Z,5.10
2023-02-20T17:13:02.480Z,5.20
2023-02-20T17:15:29.686Z,5.20
2023-02-20T17:17:57.307Z,5.20
2023-02-20T17:20:27.531Z,5.10
2023-02-20T17:23:03.925Z,5.20
2023-02-20T17:25:32.935Z,5.20
2023-02-20T17:27:59.994Z,5.30
2023-02-20T17:30:27.030Z,5.20
2023-02-20T17:32:54.138Z,5.10
2023-02-20T17:35:21.558Z,5.20
2023-02-20T17:37:49.306Z,5.10
2023-02-20T17:40:17.344Z,5.30
2023-02-20T17:42:44.562Z,5.10
2023-02-20T17:45:13.009Z,5.20
2023-02-20T17:47:39.923Z,5.10
2023-02-20T17:50:07.333Z,4.90
2023-02-20T17:52:34.716Z,4.90
2023-02-20T17:55:01.649Z,4.90
2023-02-20T17:57:28.714Z,4.80
2023-02-20T17:59:56.865Z,4.80
2023-02-20T18:02:23.977Z,4.90
2023-02-20T18:04:51.050Z,4.80
2023-02-20T18:07:18.172Z,4.90
2023-02-20T18:09:45.221Z,4.60
2023-02-20T18:12:12.247Z,4.70
2023-02-20T18:14:39.456Z,4.80
2023-02-20T18:17:08.238Z,4.70
2023-02-20T18:19:35.253Z,4.80
2023-02-20T18:22:02.815Z,4.60
2023-02-20T18:24:34.567Z,4.50
2023-02-20T18:27:01.614Z,4.30
2023-02-20T18:29:30.064Z,4.50
2023-02-20T18:31:57.589Z,4.50
2023-02-20T18:34:25.596Z,4.50
2023-02-20T18:36:54.029Z,4.60
2023-02-20T18:39:21.586Z,4.50
2023-02-20T18:41:54.704Z,4.50
2023-02-20T18:44:23.400Z,4.60
2023-02-20T18:46:51.132Z,4.70
2023-02-20T18:49:18.716Z,4.50
2023-02-20T18:51:47.188Z,4.60
2023-02-20T18:54:20.813Z,4.60
2023-02-20T18:56:49.660Z,4.50
2023-02-20T18:59:17.735Z,4.50
2023-02-20T19:01:45.971Z,4.30
2023-02-20T19:04:14.272Z,4.40
2023-02-20T19:06:44.118Z,4.30
2023-02-20T19:09:20.170Z,4.10
2023-02-20T19:11:56.085Z,4.20
2023-02-20T19:14:25.019Z,4.20
2023-02-20T19:16:55.863Z,4.10
2023-02-20T19:19:25.648Z,4.30
2023-02-20T19:21:53.749Z,4.20
2023-02-20T19:24:21.718Z,4.20
2023-02-20T19:26:48.786Z,4.10
2023-02-20T19:29:15.807Z,3.90
2023-02-20T19:31:42.903Z,3.90
2023-02-20T19:34:10.470Z,4.20
2023-02-20T19:36:41.431Z,4.10
2023-02-20T19:39:09.805Z,4.10
2023-02-20T19:41:38.176Z,4.10
2023-02-20T19:44:05.659Z,4.30
2023-02-20T19:46:32.667Z,4.30
2023-02-20T19:48:59.659Z,4.30
2023-02-20T19:51:26.585Z,4.00
2023-02-20T19:53:53.641Z,4.10
2023-02-20T19:56:20.697Z,4.20
2023-02-20T19:58:47.745Z,4.00
2023-02-20T20:01:17.654Z,4.20
2023-02-20T20:03:46.280Z,4.10
2023-02-20T20:06:16.386Z,4.30
2023-02-20T20:09:09.286Z,4.40
2023-02-20T20:11:31.354Z,4.30
2023-02-20T20:13:58.327Z,4.30
2023-02-20T20:16:25.476Z,4.30
2023-02-20T20:18:53.542Z,4.30
2023-02-20T20:21:21.694Z,4.10
2023-02-20T20:23:48.683Z,4.30
2023-02-20T20:26:15.912Z,4.40
2023-02-20T20:28:43.056Z,4.40
2023-02-20T20:31:10.017Z,4.30
2023-02-20T20:33:37.035Z,4.30
2023-02-20T20:36:04.280Z,4.50
2023-02-20T20:38:31.288Z,4.40
2023-02-20T20:40:58.285Z,4.30
2023-02-20T20:43:25.222Z,4.30
2023-02-20T20:45:52.171Z,4.20
2023-02-20T20:48:19.986Z,4.30
2023-02-20T20:50:47.173Z,4.30
2023-02-20T20:53:14.157Z,4.40
2023-02-20T20:55:41.118Z,4.20
2023-02-20T20:58:08.315Z,4.10
2023-02-20T21:00:36.398Z,4.30
2023-02-20T21:03:10.661Z,4.30
2023-02-20T21:05:37.993Z,4.40
2023-02-20T21:08:06.419Z,4.50
2023-02-20T21:10:35.337Z,4.50
2023-02-20T21:13:02.262Z,4.40
2023-02-20T21:15:29.464Z,4.30
2023-02-20T21:17:56.531Z,4.40
2023-02-20T21:20:25.331Z,4.20
2023-02-20T21:22:53.009Z,4.50
2023-02-20T21:25:27.454Z,4.40
2023-02-20T21:27:56.000Z,4.40
2023-02-20T21:30:26.015Z,4.30
2023-02-20T21:32:53.216Z,4.40
2023-02-20T21:35:25.314Z,4.30
2023-02-20T21:37:53.240Z,4.50
2023-02-20T21:40:20.375Z,4.20
2023-02-20T21:43:05.637Z,4.30
2023-02-20T21:45:33.218Z,4.30
2023-02-20T21:48:00.159Z,4.20
2023-02-20T21:50:27.709Z,4.10
2023-02-20T21:52:54.709Z,4.20
2023-02-20T21:55:22.136Z,4.30
2023-02-20T21:57:49.178Z,4.20
2023-02-20T22:00:16.875Z,4.30
2023-02-20T22:02:43.979Z,4.10
2023-02-20T22:05:11.466Z,4.30
2023-02-20T22:07:57.088Z,4.20
2023-02-20T22:10:43.656Z,4.20
2023-02-20T22:15:56.634Z,4.00
2023-02-20T22:18:42.370Z,4.40
2023-02-20T22:21:28.221Z,4.20
2023-02-20T22:24:13.829Z,4.10
2023-02-20T22:26:59.397Z,4.30
2023-02-20T22:29:44.959Z,4.20
2023-02-20T22:32:30.471Z,4.30
2023-02-20T22:35:16.258Z,4.30
2023-02-20T22:38:04.406Z,4.20
2023-02-20T22:40:50.007Z,4.20
2023-02-20T22:43:35.581Z,4.20
2023-02-20T22:46:21.286Z,4.10
2023-02-20T22:49:07.005Z,4.10
2023-02-20T22:51:52.606Z,4.20
2023-02-20T22:54:41.136Z,4.20
2023-02-20T22:57:27.346Z,4.20
2023-02-20T23:00:13.049Z,4.10
2023-02-20T23:02:58.725Z,3.80
2023-02-20T23:05:44.174Z,4.10
2023-02-20T23:08:30.842Z,4.10
2023-02-20T23:11:16.585Z,4.10
